Time;durP1;ratioP1;P1;durP2;ratioP2;P2;SDS_P1;SDS_P2;PMS_P1;PMS_P2;Temp;Humidity;BMP_temperature;BMP_pressure;BME280_temperature;BME280_humidity;BME280_pressure;Samples;Min_cycle;Max_cycle;Signal;HPM_P1;HPM_P2
2022/12/24 00:02:03;;;;;;;0.10;0.10;;;;;;;21.93;48.12;98457.25;7402451;19;20010;-88
2022/12/24 00:04:29;;;;;;;0.10;0.10;;;;;;;22.30;48.19;98467.31;7400306;19;20464;-88
2022/12/24 00:06:55;;;;;;;6.38;0.68;;;;;;;22.31;48.50;98468.78;7399086;19;20089;-88
2022/12/24 00:09:21;;;;;;;0.20;0.20;;;;;;;22.44;48.74;98474.06;7399143;19;20017;-89
2022/12/24 00:11:47;;;;;;;0.82;0.82;;;;;;;22.12;49.39;98477.22;7398097;19;20023;-89
2022/12/24 00:14:13;;;;;;;5.85;1.30;;;;;;;22.15;49.62;98480.97;7398615;19;20018;-89
2022/12/24 00:16:40;;;;;;;0.85;0.20;;;;;;;22.05;49.66;98471.63;7399790;19;20043;-89
2022/12/24 00:19:06;;;;;;;0.10;0.10;;;;;;;22.22;49.63;98486.50;7400071;19;20070;-89
2022/12/24 00:21:32;;;;;;;0.28;0.28;;;;;;;22.41;49.96;98486.63;7397075;19;20074;-89
2022/12/24 00:23:58;;;;;;;0.10;0.08;;;;;;;22.44;50.68;98479.00;7399528;19;20500;-89
2022/12/24 00:26:24;;;;;;;0.10;0.10;;;;;;;22.75;51.18;98477.19;7399618;19;20018;-89
2022/12/24 00:28:50;;;;;;;0.30;0.30;;;;;;;23.16;51.65;98478.19;7399088;19;20025;-89
2022/12/24 00:31:17;;;;;;;0.65;0.65;;;;;;;23.22;52.21;98476.53;7397796;19;20025;-89
2022/12/24 00:33:47;;;;;;;0.10;0.10;;;;;;;23.37;52.08;98478.38;7403476;19;20353;-89
2022/12/24 00:36:14;;;;;;;0.28;0.28;;;;;;;23.77;52.02;98489.91;7399145;19;20026;-89
2022/12/24 00:38:40;;;;;;;1.65;0.43;;;;;;;23.88;51.67;98483.59;7398767;19;20095;-89
2022/12/24 00:41:23;;;;;;;0.30;0.30;;;;;;;23.88;51.59;98483.59;7396438;19;20452;-89
2022/12/24 00:43:58;;;;;;;0.20;0.10;;;;;;;23.87;51.70;98475.66;7402557;19;20017;-89
2022/12/24 00:46:26;;;;;;;0.10;0.10;;;;;;;23.82;51.56;98474.59;7399800;19;20394;-90
2022/12/24 00:48:53;;;;;;;0.17;0.13;;;;;;;23.84;51.12;98477.63;7399705;19;20026;-89
2022/12/24 00:51:19;;;;;;;0.10;0.00;;;;;;;24.04;50.67;98476.25;7397202;19;20025;-89
2022/12/24 00:53:46;;;;;;;0.40;0.40;;;;;;;23.95;50.60;98479.81;7404230;19;20098;-89
2022/12/24 00:56:12;;;;;;;0.10;0.00;;;;;;;23.73;50.12;98483.91;7398568;19;20034;-88
2022/12/24 00:58:38;;;;;;;0.10;0.05;;;;;;;23.37;49.93;98501.09;7400986;19;20037;-89
2022/12/24 01:01:05;;;;;;;0.10;0.10;;;;;;;22.90;50.72;98496.06;7397184;19;20074;-89
2022/12/24 01:03:34;;;;;;;0.20;0.20;;;;;;;23.74;49.31;98502.47;7403419;19;20031;-89
2022/12/24 01:06:05;;;;;;;0.20;0.17;;;;;;;23.70;48.36;98498.56;7398538;19;20039;-89
2022/12/24 01:08:32;;;;;;;0.73;0.60;;;;;;;23.65;47.82;98500.38;7399252;19;20007;-88
2022/12/24 01:10:59;;;;;;;0.30;0.30;;;;;;;23.53;47.91;98504.41;7397823;19;20018;-88
2022/12/24 01:13:25;;;;;;;0.10;0.00;;;;;;;23.23;48.39;98514.22;7402425;19;20017;-88
2022/12/24 01:15:51;;;;;;;0.25;0.05;;;;;;;23.54;47.70;98517.28;7397289;19;20055;-89
2022/12/24 01:18:18;;;;;;;0.10;0.10;;;;;;;23.90;47.35;98512.19;7398693;19;20018;-88
2022/12/24 01:20:44;;;;;;;0.10;0.10;;;;;;;23.79;47.54;98520.56;7396455;19;20086;-88
2022/12/24 01:23:11;;;;;;;0.35;0.35;;;;;;;23.75;47.77;98525.97;7400227;19;20478;-88
2022/12/24 01:25:38;;;;;;;0.10;0.00;;;;;;;24.43;46.59;98524.53;7395851;19;20014;-88
2022/12/24 01:28:05;;;;;;;2.92;1.38;;;;;;;24.41;46.69;98521.53;7399223;19;20018;-89
2022/12/24 01:30:31;;;;;;;0.10;0.10;;;;;;;24.27;46.55;98520.53;7397166;19;20420;-88
2022/12/24 01:32:57;;;;;;;8.32;1.10;;;;;;;24.28;46.42;98524.88;7399489;19;20038;-89
2022/12/24 01:35:24;;;;;;;0.10;0.10;;;;;;;24.26;46.50;98527.56;7396830;19;20002;-89
2022/12/24 01:37:50;;;;;;;0.10;0.00;;;;;;;24.54;46.46;98530.31;7396659;19;20014;-89
2022/12/24 01:45:52;;;;;;;0.20;0.20;;;;;;;25.10;45.77;98522.13;7397246;19;20019;-89
2022/12/24 01:48:27;;;;;;;0.10;0.10;;;;;;;25.07;45.86;98516.94;7396287;19;20006;-90
2022/12/24 01:51:00;;;;;;;0.10;0.00;;;;;;;24.77;45.76;98518.44;7396322;19;20011;-88
2022/12/24 01:53:27;;;;;;;0.40;0.40;;;;;;;25.34;45.48;98515.25;7400986;19;20047;-89
2022/12/24 01:55:54;;;;;;;0.20;0.20;;;;;;;26.03;45.04;98523.41;7396168;19;20014;-89
2022/12/24 01:58:23;;;;;;;0.10;0.10;;;;;;;26.13;44.66;98514.78;7400181;19;20018;-89
2022/12/24 02:00:49;;;;;;;0.20;0.20;;;;;;;25.92;44.92;98523.38;7399070;19;20403;-89
2022/12/24 02:03:16;;;;;;;0.10;0.10;;;;;;;26.21;44.89;98521.75;7400632;19;20014;-89
2022/12/24 02:05:49;;;;;;;0.57;0.57;;;;;;;26.80;44.29;98529.06;7397177;19;20018;-89
2022/12/24 02:08:17;;;;;;;0.22;0.22;;;;;;;26.67;44.33;98532.53;7397251;19;20054;-87
2022/12/24 02:10:44;;;;;;;3.28;1.00;;;;;;;26.60;43.95;98527.78;7394180;19;20010;-87
2022/12/24 02:13:11;;;;;;;0.10;0.10;;;;;;;26.91;44.11;98539.75;7395710;19;20022;-87
2022/12/24 02:16:01;;;;;;;0.10;0.00;;;;;;;26.88;44.42;98549.56;7395347;19;20007;-87
2022/12/24 02:19:09;;;;;;;0.22;0.17;;;;;;;26.95;44.56;98544.97;7393587;19;20582;-87
2022/12/24 02:21:49;;;;;;;0.28;0.28;;;;;;;27.31;44.24;98546.44;7392440;19;20014;-86
2022/12/24 02:24:22;;;;;;;0.30;0.30;;;;;;;27.50;44.03;98546.19;7397019;19;20479;-87
2022/12/24 02:26:51;;;;;;;1.20;0.43;;;;;;;28.23;43.33;98546.19;7394698;19;20341;-88
2022/12/24 02:29:27;;;;;;;0.20;0.10;;;;;;;28.29;42.92;98555.13;7395942;19;20015;-88
2022/12/24 02:32:10;;;;;;;0.10;0.10;;;;;;;28.19;42.39;98551.69;7392098;19;20472;-86
2022/12/24 02:34:50;;;;;;;0.45;0.13;;;;;;;28.52;41.87;98554.25;7395553;19;20389;-87
2022/12/24 02:37:28;;;;;;;9.55;0.52;;;;;;;25.93;42.72;98561.94;7398384;19;20040;-87
2022/12/24 02:40:05;;;;;;;0.00;0.00;;;;;;;10.18;100.00;98596.69;7394035;19;20033;-87
2022/12/24 02:42:43;;;;;;;2.75;0.57;;;;;;;7.80;100.00;98600.63;7397589;19;20096;-87
2022/12/24 02:45:30;;;;;;;0.17;0.10;;;;;;;11.55;100.00;98594.25;7396451;19;20480;-87
2022/12/24 02:47:58;;;;;;;0.10;0.00;;;;;;;7.68;100.00;98605.28;7394466;19;20020;-88
2022/12/24 02:50:24;;;;;;;0.10;0.00;;;;;;;6.57;100.00;98602.97;7394137;19;20345;-87
2022/12/24 02:52:51;;;;;;;0.13;0.13;;;;;;;6.24;100.00;98611.47;7396017;19;20014;-87
2022/12/24 02:55:20;;;;;;;0.17;0.15;;;;;;;5.97;100.00;98615.28;7395408;19;20018;-86
2022/12/24 02:57:57;;;;;;;2.53;0.73;;;;;;;6.11;100.00;98614.53;7395104;19;20473;-86
2022/12/24 03:00:24;;;;;;;8.30;0.57;;;;;;;7.03;100.00;98612.25;7394463;19;20014;-86
2022/12/24 03:03:25;;;;;;;0.10;0.00;;;;;;;7.38;100.00;98618.53;7396140;19;20007;-84
2022/12/24 03:06:01;;;;;;;0.63;0.63;;;;;;;23.10;78.68;98594.94;7394601;19;20014;-87
2022/12/24 03:08:41;;;;;;;0.20;0.20;;;;;;;22.77;70.76;98618.53;7394448;19;20014;-86
2022/12/24 03:11:10;;;;;;;0.10;0.00;;;;;;;24.94;63.34;98612.19;7393610;19;20017;-87
2022/12/24 03:13:37;;;;;;;0.10;0.05;;;;;;;25.08;60.64;98616.03;7398333;19;20078;-86
2022/12/24 03:16:09;;;;;;;0.10;0.03;;;;;;;24.37;60.22;98618.00;7394847;19;20018;-86
2022/12/24 03:18:39;;;;;;;0.10;0.00;;;;;;;24.69;59.48;98626.03;7393431;19;20015;-86
2022/12/24 03:21:14;;;;;;;0.40;0.40;;;;;;;24.89;56.91;98633.19;7393396;19;20026;-86
2022/12/24 03:23:41;;;;;;;0.10;0.00;;;;;;;25.21;55.22;98629.78;7397982;19;20021;-86
2022/12/24 03:26:10;;;;;;;0.10;0.10;;;;;;;25.12;53.86;98633.41;7393483;19;20074;-86
2022/12/24 03:28:38;;;;;;;0.10;0.00;;;;;;;25.70;51.73;98644.56;7394372;19;20019;-87
2022/12/24 03:31:05;;;;;;;0.30;0.30;;;;;;;25.38;50.48;98643.78;7396679;19;20015;-87
2022/12/24 03:33:32;;;;;;;0.10;0.10;;;;;;;26.12;48.44;98644.56;7404399;19;20017;-88
2022/12/24 03:35:58;;;;;;;0.10;0.10;;;;;;;26.41;46.08;98656.50;7400791;19;20022;-87
2022/12/24 03:38:24;;;;;;;0.20;0.20;;;;;;;25.25;47.51;98655.69;7402220;19;20025;-87
2022/12/24 03:40:51;;;;;;;0.10;0.10;;;;;;;25.46;46.54;98660.75;7400808;19;20036;-87
2022/12/24 03:43:17;;;;;;;0.10;0.00;;;;;;;25.50;46.19;98650.38;7404831;19;20018;-88
2022/12/24 03:45:43;;;;;;;0.10;0.10;;;;;;;11.09;98.00;98682.03;7401341;19;20014;-87
2022/12/24 03:48:09;;;;;;;2.00;0.65;;;;;;;6.69;100.00;98690.47;7398372;19;20348;-87
2022/12/24 03:50:36;;;;;;;0.10;0.00;;;;;;;5.41;100.00;98684.44;7399834;19;20081;-85
2022/12/24 03:53:02;;;;;;;0.30;0.30;;;;;;;4.51;100.00;98691.03;7402400;19;20146;-88
2022/12/24 03:55:28;;;;;;;0.10;0.10;;;;;;;4.44;100.00;98692.13;7398381;19;20036;-87
2022/12/24 03:57:54;;;;;;;0.10;0.10;;;;;;;4.09;100.00;98698.47;7401160;19;20042;-85
2022/12/24 04:00:20;;;;;;;0.10;0.10;;;;;;;3.64;100.00;98712.94;7400012;19;20074;-85
2022/12/24 04:02:47;;;;;;;2.85;0.30;;;;;;;4.32;100.00;98714.34;7402984;19;20357;-85
2022/12/24 04:05:17;;;;;;;0.10;0.10;;;;;;;7.44;100.00;98705.22;7400473;19;20017;-85
2022/12/24 04:07:44;;;;;;;0.10;0.10;;;;;;;7.67;100.00;98706.28;7398955;19;20365;-85
2022/12/24 04:10:10;;;;;;;0.20;0.20;;;;;;;21.34;73.60;98683.22;7398795;19;20500;-88
2022/12/24 04:12:37;;;;;;;0.10;0.10;;;;;;;23.83;57.26;98677.25;7402546;19;20014;-85
2022/12/24 04:15:04;;;;;;;0.10;0.10;;;;;;;24.17;53.43;98684.81;7401541;19;20079;-87
2022/12/24 04:17:31;;;;;;;0.10;0.10;;;;;;;24.46;51.77;98682.72;7399837;19;20438;-85
2022/12/24 04:19:57;;;;;;;0.10;0.10;;;;;;;24.55;50.08;98687.66;7398685;19;20022;-87
2022/12/24 04:22:23;;;;;;;0.45;0.45;;;;;;;24.35;49.18;98684.06;7401092;19;20014;-87
2022/12/24 04:24:49;;;;;;;0.10;0.10;;;;;;;23.66;49.43;98686.66;7398999;19;20345;-85
2022/12/24 04:27:16;;;;;;;0.10;0.10;;;;;;;24.64;47.73;98681.19;7397597;19;20010;-88
2022/12/24 04:29:42;;;;;;;0.10;0.00;;;;;;;21.11;52.77;98683.41;7398536;19;20074;-86
2022/12/24 04:32:08;;;;;;;0.10;0.10;;;;;;;24.70;47.06;98685.25;7399864;19;20006;-86
2022/12/24 04:34:35;;;;;;;0.10;0.10;;;;;;;24.10;46.50;98687.19;7398348;19;20011;-85
2022/12/24 04:37:02;;;;;;;0.10;0.10;;;;;;;22.70;48.55;98693.22;7397788;19;20456;-87
2022/12/24 04:39:29;;;;;;;0.10;0.10;;;;;;;13.66;98.53;98711.66;7398686;19;20014;-85
2022/12/24 04:41:55;;;;;;;0.10;0.10;;;;;;;9.40;100.00;98726.97;7395553;19;20014;-88
2022/12/24 04:44:21;;;;;;;0.10;0.10;;;;;;;5.72;100.00;98736.53;7397856;19;20014;-85
2022/12/24 04:46:47;;;;;;;0.13;0.05;;;;;;;3.80;100.00;98748.47;7397576;19;20357;-85
2022/12/24 04:49:13;;;;;;;0.10;0.10;;;;;;;3.91;100.00;98740.53;7399460;19;20018;-88
2022/12/24 04:51:40;;;;;;;0.10;0.00;;;;;;;4.43;100.00;98737.47;7396871;19;20017;-85
2022/12/24 04:54:06;;;;;;;0.20;0.10;;;;;;;5.12;100.00;98744.97;7398736;19;20006;-85
2022/12/24 04:56:32;;;;;;;0.10;0.10;;;;;;;4.24;100.00;98747.00;7397227;19;20054;-84
2022/12/24 04:58:59;;;;;;;0.10;0.10;;;;;;;3.27;100.00;98739.59;7398602;19;20017;-85
2022/12/24 05:01:30;;;;;;;0.10;0.10;;;;;;;3.67;100.00;98750.59;7397945;19;20453;-88
2022/12/24 05:03:56;;;;;;;0.10;0.10;;;;;;;14.18;100.00;98726.09;7399362;19;20110;-85
2022/12/24 05:06:25;;;;;;;0.20;0.20;;;;;;;8.78;100.00;98738.84;7398306;19;20014;-85
2022/12/24 05:08:56;;;;;;;0.10;0.10;;;;;;;4.39;100.00;98750.66;7398310;19;20022;-85
2022/12/24 05:11:24;;;;;;;0.10;0.03;;;;;;;6.86;100.00;98738.53;7395767;19;20029;-85
2022/12/24 05:13:50;;;;;;;0.10;0.10;;;;;;;12.90;90.73;98745.31;7403033;19;20073;-85
2022/12/24 05:16:18;;;;;;;0.10;0.10;;;;;;;14.54;100.00;98751.13;7398614;19;20017;-85
2022/12/24 05:18:44;;;;;;;0.15;0.15;;;;;;;19.99;68.47;98741.91;7397129;19;20017;-85
2022/12/24 05:21:17;;;;;;;0.10;0.10;;;;;;;20.96;60.63;98742.91;7397178;19;20022;-88
2022/12/24 05:26:30;;;;;;;0.10;0.10;;;;;;;20.55;58.45;98752.72;7397171;19;20037;-87
2022/12/24 05:28:58;;;;;;;0.15;0.15;;;;;;;21.19;55.85;98756.97;7398434;19;20015;-86
2022/12/24 05:31:25;;;;;;;0.10;0.10;;;;;;;22.10;52.84;98757.03;7396216;19;20042;-85
2022/12/24 05:33:53;;;;;;;0.10;0.10;;;;;;;22.27;51.15;98749.28;7401975;19;20022;-85
2022/12/24 05:36:20;;;;;;;0.10;0.10;;;;;;;21.36;52.14;98751.38;7396648;19;20019;-87
2022/12/24 05:38:46;;;;;;;0.30;0.15;;;;;;;21.54;50.93;98764.28;7398385;19;20037;-86
2022/12/24 05:41:12;;;;;;;0.65;0.30;;;;;;;21.44;50.78;98763.41;7395032;19;20007;-86
2022/12/24 05:43:38;;;;;;;0.10;0.10;;;;;;;21.52;49.99;98766.94;7401104;19;20021;-87
2022/12/24 05:46:09;;;;;;;0.10;0.10;;;;;;;21.78;49.26;98760.69;7394877;19;20025;-85
2022/12/24 05:48:35;;;;;;;0.10;0.10;;;;;;;21.31;49.56;98758.03;7397028;19;20017;-86
2022/12/24 05:51:07;;;;;;;0.10;0.10;;;;;;;21.89;47.90;98761.00;7394227;19;20010;-86
2022/12/24 05:53:34;;;;;;;0.10;0.10;;;;;;;21.66;47.77;98763.25;7398312;19;20017;-86
2022/12/24 05:56:05;;;;;;;0.10;0.10;;;;;;;21.52;47.90;98766.94;7396714;19;20511;-86
2022/12/24 05:58:32;;;;;;;0.10;0.10;;;;;;;21.41;47.34;98761.72;7394704;19;20006;-86
2022/12/24 06:01:00;;;;;;;0.10;0.10;;;;;;;21.43;46.90;98773.22;7395615;19;20456;-86
2022/12/24 06:03:27;;;;;;;1.13;0.85;;;;;;;21.13;47.25;98785.50;7398623;19;20037;-86
2022/12/24 06:06:01;;;;;;;0.10;0.10;;;;;;;21.16;46.42;98783.63;7395201;19;20006;-85
2022/12/24 06:08:28;;;;;;;0.10;0.10;;;;;;;21.36;45.89;98782.53;7396822;19;20014;-86
2022/12/24 06:10:59;;;;;;;0.20;0.20;;;;;;;21.21;46.26;98789.03;7394584;19;20019;-86
2022/12/24 06:13:25;;;;;;;0.10;0.10;;;;;;;21.24;45.59;98792.81;7398052;19;20010;-85
2022/12/24 06:15:56;;;;;;;0.10;0.10;;;;;;;20.94;46.10;98790.88;7394300;19;20014;-86
2022/12/24 06:18:23;;;;;;;0.10;0.10;;;;;;;20.68;46.22;98789.25;7394589;19;20097;-86
2022/12/24 06:20:51;;;;;;;0.10;0.10;;;;;;;20.87;46.52;98805.78;7393715;19;20010;-85
2022/12/24 06:23:18;;;;;;;0.10;0.10;;;;;;;21.18;46.12;98800.78;7399603;19;20077;-86
2022/12/24 06:25:44;;;;;;;0.95;0.30;;;;;;;21.31;46.14;98797.69;7394387;19;20011;-85
2022/12/24 06:28:11;;;;;;;0.10;0.10;;;;;;;21.17;46.08;98800.03;7395898;19;20026;-86
2022/12/24 06:30:37;;;;;;;0.10;0.10;;;;;;;21.15;45.81;98805.50;7394922;19;20029;-86
2022/12/24 06:33:03;;;;;;;0.10;0.10;;;;;;;21.01;46.22;98810.63;7397395;19;20010;-85
2022/12/24 06:35:31;;;;;;;0.10;0.10;;;;;;;20.58;46.74;98810.97;7394472;19;20026;-85
2022/12/24 06:37:58;;;;;;;0.10;0.10;;;;;;;17.58;49.12;98815.72;7394013;19;20341;-86
2022/12/24 06:40:25;;;;;;;0.10;0.10;;;;;;;9.83;78.85;98839.00;7392866;19;20074;-86
2022/12/24 06:42:52;;;;;;;0.10;0.10;;;;;;;6.49;100.00;98847.97;7395484;19;20010;-86
2022/12/24 06:45:18;;;;;;;0.10;0.10;;;;;;;5.64;100.00;98857.66;7393983;19;20010;-85
2022/12/24 06:47:44;;;;;;;0.10;0.10;;;;;;;5.46;100.00;98854.94;7392394;19;20007;-86
2022/12/24 06:50:10;;;;;;;0.10;0.10;;;;;;;4.95;100.00;98859.66;7395339;19;20014;-86
2022/12/24 06:52:37;;;;;;;0.13;0.13;;;;;;;4.73;100.00;98859.06;7397352;19;20019;-86
2022/12/24 06:55:03;;;;;;;0.10;0.10;;;;;;;4.41;100.00;98855.69;7395292;19;20010;-86
2022/12/24 06:57:30;;;;;;;0.10;0.10;;;;;;;4.56;100.00;98867.66;7397100;19;20021;-85
2022/12/24 06:59:57;;;;;;;0.10;0.03;;;;;;;5.22;100.00;98873.41;7392783;19;20031;-85
2022/12/24 07:02:23;;;;;;;1.85;0.20;;;;;;;5.11;100.00;98875.91;7397334;19;20355;-85
2022/12/24 07:04:50;;;;;;;0.10;0.10;;;;;;;5.32;100.00;98870.19;7398327;19;20042;-86
2022/12/24 07:07:16;;;;;;;0.20;0.20;;;;;;;4.61;100.00;98877.31;7400004;19;20014;-86
2022/12/24 07:09:42;;;;;;;0.30;0.30;;;;;;;4.48;100.00;98874.66;7400624;19;20015;-86
2022/12/24 07:12:08;;;;;;;0.10;0.10;;;;;;;4.28;100.00;98876.34;7403279;19;20033;-86
2022/12/24 07:14:34;;;;;;;0.10;0.10;;;;;;;4.01;100.00;98871.53;7400371;19;20746;-84
2022/12/24 07:17:00;;;;;;;0.10;0.10;;;;;;;3.86;100.00;98873.31;7402484;19;20010;-86
2022/12/24 07:19:27;;;;;;;0.10;0.10;;;;;;;3.76;100.00;98872.53;7403044;19;20033;-86
2022/12/24 07:21:53;;;;;;;0.10;0.10;;;;;;;3.68;100.00;98878.78;7400062;19;20017;-86
2022/12/24 07:24:19;;;;;;;0.20;0.20;;;;;;;3.71;100.00;98877.84;7398823;19;20041;-86
2022/12/24 07:26:45;;;;;;;0.10;0.10;;;;;;;3.68;100.00;98887.03;7402433;19;20032;-86
2022/12/24 07:29:11;;;;;;;0.10;0.10;;;;;;;3.80;100.00;98888.91;7403992;19;20380;-86
2022/12/24 07:31:37;;;;;;;0.10;0.05;;;;;;;3.74;100.00;98891.50;7398930;19;20049;-86
2022/12/24 07:34:03;;;;;;;0.10;0.10;;;;;;;3.89;100.00;98888.16;7398229;19;20349;-84
2022/12/24 07:36:30;;;;;;;0.10;0.10;;;;;;;3.81;100.00;98882.19;7397557;19;20381;-86
2022/12/24 07:38:56;;;;;;;0.10;0.10;;;;;;;4.44;100.00;98890.59;7400246;19;20022;-85
2022/12/24 07:41:22;;;;;;;0.10;0.10;;;;;;;4.55;100.00;98892.91;7399172;19;20018;-86
2022/12/24 07:43:48;;;;;;;0.10;0.10;;;;;;;4.04;100.00;98889.91;7405941;19;20042;-84
2022/12/24 07:46:14;;;;;;;0.10;0.10;;;;;;;3.78;100.00;98894.09;7400557;19;20014;-87
2022/12/24 07:48:40;;;;;;;0.10;0.10;;;;;;;3.51;100.00;98894.00;7399876;19;20010;-86
2022/12/24 07:51:07;;;;;;;0.10;0.10;;;;;;;3.34;100.00;98892.66;7402985;19;20021;-85
2022/12/24 07:53:33;;;;;;;0.10;0.10;;;;;;;3.34;100.00;98887.13;7403199;19;20037;-87
2022/12/24 07:55:59;;;;;;;0.10;0.00;;;;;;;3.57;100.00;98889.41;7400386;19;20017;-91
2022/12/24 07:58:26;;;;;;;0.32;0.32;;;;;;;3.73;100.00;98886.41;7405504;19;20022;-92
2022/12/24 08:00:57;;;;;;;0.10;0.10;;;;;;;3.91;100.00;98888.47;7399968;19;20295;-92
2022/12/24 08:03:24;;;;;;;;;;;;;;;3.87;100.00;98894.13;7405478;19;20006;-92
2022/12/24 08:05:51;;;;;;;0.10;0.10;;;;;;;3.73;100.00;98898.22;7401611;19;19923;-91
2022/12/24 08:08:18;;;;;;;0.10;0.10;;;;;;;3.93;100.00;98897.06;7398354;19;20014;-91
2022/12/24 08:10:45;;;;;;;0.10;0.10;;;;;;;4.15;100.00;98901.25;7399302;19;20028;-91
2022/12/24 08:13:12;;;;;;;0.10;0.10;;;;;;;4.13;100.00;98897.44;7403692;19;20735;-91
2022/12/24 08:15:39;;;;;;;0.15;0.15;;;;;;;3.77;100.00;98904.34;7398515;19;20344;-84
2022/12/24 08:18:05;;;;;;;0.30;0.30;;;;;;;3.58;100.00;98901.94;7403126;19;20014;-90
2022/12/24 08:20:31;;;;;;;0.10;0.10;;;;;;;3.48;100.00;98905.88;7398331;19;20026;-89
2022/12/24 08:22:57;;;;;;;0.40;0.30;;;;;;;4.17;100.00;98920.09;7401888;19;20158;-90
2022/12/24 08:25:23;;;;;;;0.20;0.20;;;;;;;4.95;100.00;98925.88;7399261;19;20006;-90
2022/12/24 08:27:49;;;;;;;0.10;0.10;;;;;;;4.27;100.00;98925.16;7400690;19;20469;-90
2022/12/24 08:30:16;;;;;;;0.10;0.10;;;;;;;5.61;100.00;98919.31;7399845;19;20421;-90
2022/12/24 08:32:42;;;;;;;0.20;0.20;;;;;;;4.69;100.00;98927.38;7403022;19;20030;-90
2022/12/24 08:35:08;;;;;;;2.75;1.17;;;;;;;4.98;100.00;98938.75;7399749;19;20019;-90
2022/12/24 08:37:34;;;;;;;0.25;0.25;;;;;;;4.44;100.00;98942.22;7400193;19;20010;-89
2022/12/24 08:40:00;;;;;;;0.10;0.10;;;;;;;4.19;100.00;98934.19;7398190;19;20025;-89
2022/12/24 08:42:27;;;;;;;0.25;0.25;;;;;;;4.08;100.00;98945.63;7401412;19;20651;-89
2022/12/24 08:44:53;;;;;;;0.30;0.30;;;;;;;4.13;100.00;98942.28;7398810;19;20044;-88
2022/12/24 08:47:19;;;;;;;0.35;0.35;;;;;;;4.00;100.00;98947.13;7397622;19;20014;-90
2022/12/24 08:49:45;;;;;;;3.22;0.88;;;;;;;4.06;100.00;98948.06;7397944;19;20017;-90
2022/12/24 08:52:11;;;;;;;0.10;0.10;;;;;;;4.63;100.00;98958.31;7399113;19;20014;-90
2022/12/24 08:54:37;;;;;;;0.30;0.30;;;;;;;4.39;100.00;98960.13;7398885;19;20501;-90
2022/12/24 08:57:03;;;;;;;0.10;0.10;;;;;;;4.03;100.00;98967.50;7401688;19;20341;-89
2022/12/24 08:59:29;;;;;;;1.50;0.38;;;;;;;4.78;100.00;98974.28;7400079;19;20059;-90
2022/12/24 09:01:57;;;;;;;0.17;0.17;;;;;;;4.85;100.00;98968.47;7396678;19;20038;-90
2022/12/24 09:04:23;;;;;;;0.10;0.10;;;;;;;4.75;100.00;98980.69;7399934;19;20013;-90
2022/12/24 09:06:49;;;;;;;0.10;0.10;;;;;;;3.81;100.00;98973.81;7398779;19;20034;-90
2022/12/24 09:09:15;;;;;;;0.10;0.10;;;;;;;5.77;100.00;98976.22;7397693;19;20010;-90
2022/12/24 09:11:41;;;;;;;0.10;0.10;;;;;;;5.66;100.00;98970.41;7396134;19;20014;-90
2022/12/24 09:14:07;;;;;;;0.10;0.10;;;;;;;4.74;100.00;98974.44;7397751;19;20014;-90
2022/12/24 09:16:34;;;;;;;0.47;0.47;;;;;;;5.91;100.00;98965.31;7398695;19;20413;-90
2022/12/24 09:19:00;;;;;;;0.10;0.10;;;;;;;6.54;100.00;98978.09;7398565;19;20034;-90
2022/12/24 09:21:26;;;;;;;0.20;0.20;;;;;;;6.26;100.00;98975.94;7395952;19;20014;-90
2022/12/24 09:23:52;;;;;;;0.40;0.20;;;;;;;6.69;100.00;98967.84;7401899;19;20082;-89
2022/12/24 09:26:24;;;;;;;0.63;0.63;;;;;;;5.59;100.00;98976.28;7397469;19;20022;-90
2022/12/24 09:28:52;;;;;;;0.17;0.13;;;;;;;6.18;100.00;98980.25;7397428;19;20022;-89
2022/12/24 09:31:18;;;;;;;0.45;0.40;;;;;;;5.82;100.00;98984.66;7397870;19;20091;-89
2022/12/24 09:33:47;;;;;;;0.20;0.20;;;;;;;5.12;100.00;98979.50;7401993;19;20018;-89
2022/12/24 09:36:13;;;;;;;0.10;0.10;;;;;;;4.99;100.00;98981.66;7397280;19;20014;-89
2022/12/24 09:38:40;;;;;;;0.28;0.28;;;;;;;3.52;100.00;98983.59;7398281;19;20018;-89
2022/12/24 09:41:27;;;;;;;7.20;1.42;;;;;;;2.78;100.00;98992.47;7397097;19;20010;-89
2022/12/24 09:44:36;;;;;;;0.75;0.75;;;;;;;3.68;100.00;98999.91;7401622;19;20010;-89
2022/12/24 09:47:19;;;;;;;2.20;0.95;;;;;;;4.11;100.00;98988.81;7396728;19;20078;-89
2022/12/24 09:49:51;;;;;;;1.10;0.70;;;;;;;4.48;100.00;98997.97;7396918;19;20055;-89
2022/12/24 09:52:48;;;;;;;1.20;0.98;;;;;;;4.30;100.00;98995.91;7398462;19;20018;-89
2022/12/24 09:55:36;;;;;;;0.65;0.30;;;;;;;4.29;100.00;99002.63;7396965;19;20011;-89
2022/12/24 09:58:05;;;;;;;1.10;0.57;;;;;;;3.54;100.00;99000.41;7400653;19;20037;-89
2022/12/24 10:00:36;;;;;;;0.20;0.20;;;;;;;3.75;100.00;99000.41;7397841;19;20473;-89
2022/12/24 10:03:13;;;;;;;0.80;0.80;;;;;;;3.74;100.00;99003.59;7400599;19;20015;-89
2022/12/24 10:06:11;;;;;;;17.52;2.08;;;;;;;3.91;100.00;99013.19;7397277;19;20036;-89
2022/12/24 10:09:01;;;;;;;0.60;0.55;;;;;;;3.67;100.00;99012.91;7395567;19;20014;-89
2022/12/24 10:11:41;;;;;;;3.20;0.60;;;;;;;4.32;100.00;99021.03;7394196;19;20348;-88
2022/12/24 10:14:14;;;;;;;0.85;0.85;;;;;;;4.68;100.00;99019.63;7395010;19;20456;-89
2022/12/24 10:17:01;;;;;;;0.52;0.52;;;;;;;5.45;100.00;99024.59;7396462;19;20015;-89
2022/12/24 10:19:38;;;;;;;3.42;1.40;;;;;;;5.64;100.00;99023.34;7397110;19;20014;-89
2022/12/24 10:22:18;;;;;;;4.03;1.00;;;;;;;5.93;100.00;99026.38;7394815;19;20007;-88
2022/12/24 10:24:52;;;;;;;4.68;1.50;;;;;;;5.08;100.00;99017.53;7396236;19;20082;-86
2022/12/24 10:27:24;;;;;;;2.03;1.75;;;;;;;5.12;100.00;99026.44;7395878;19;20338;-88
2022/12/24 10:30:05;;;;;;;1.55;0.80;;;;;;;5.46;100.00;99025.38;7396801;19;20510;-89
2022/12/24 10:32:34;;;;;;;2.17;0.93;;;;;;;5.21;100.00;99018.94;7396743;19;20007;-90
2022/12/24 10:35:15;;;;;;;3.20;2.28;;;;;;;5.07;100.00;99019.53;7396302;19;20022;-88
2022/12/24 10:37:43;;;;;;;1.42;1.33;;;;;;;4.26;100.00;99011.81;7396029;19;20033;-88
2022/12/24 10:40:30;;;;;;;3.83;0.93;;;;;;;4.15;100.00;99005.97;7406234;19;20066;-88
2022/12/24 10:42:57;;;;;;;1.27;0.50;;;;;;;4.07;100.00;99015.69;7411717;19;20014;-87
2022/12/24 10:45:29;;;;;;;0.30;0.30;;;;;;;4.23;100.00;99017.47;7409705;19;20078;-82
2022/12/24 10:48:03;;;;;;;0.25;0.25;;;;;;;4.51;100.00;99011.59;7407692;19;20049;-86
2022/12/24 10:50:41;;;;;;;0.20;0.20;;;;;;;5.20;100.00;99013.84;7408513;19;20026;-85
2022/12/24 10:53:14;;;;;;;1.23;1.13;;;;;;;6.23;100.00;99012.81;7414044;19;20022;-85
2022/12/24 10:55:40;;;;;;;0.75;0.57;;;;;;;6.48;100.00;99006.84;7407075;19;20015;-85
2022/12/24 10:58:14;;;;;;;0.52;0.35;;;;;;;6.55;100.00;99007.28;7411100;19;20092;-85
2022/12/24 11:00:41;;;;;;;0.47;0.47;;;;;;;7.30;100.00;99005.09;7409362;19;20019;-86
2022/12/24 11:03:30;;;;;;;2.45;1.05;;;;;;;7.57;100.00;98990.25;7413199;19;20018;-87
2022/12/24 11:06:03;;;;;;;1.38;0.50;;;;;;;7.83;100.00;98990.44;7408455;19;20466;-87
2022/12/24 11:08:29;;;;;;;0.40;0.30;;;;;;;7.82;100.00;98992.44;7406941;19;20498;-87
2022/12/24 11:11:05;;;;;;;0.20;0.20;;;;;;;8.39;100.00;98992.91;7406520;19;20025;-86
2022/12/24 11:13:39;;;;;;;1.50;1.10;;;;;;;8.04;100.00;98983.75;7411546;19;20014;-87
2022/12/24 11:16:18;;;;;;;0.10;0.10;;;;;;;7.55;100.00;98985.19;7409389;19;20029;-87
2022/12/24 11:18:58;;;;;;;0.10;0.10;;;;;;;7.52;100.00;98977.03;7408929;19;20034;-91
2022/12/24 11:21:31;;;;;;;0.55;0.32;;;;;;;7.39;100.00;98985.63;7406198;19;20082;-88
2022/12/24 11:24:03;;;;;;;0.57;0.57;;;;;;;8.34;100.00;98974.16;7409299;19;20014;-88
2022/12/24 11:26:30;;;;;;;0.22;0.22;;;;;;;8.25;100.00;98979.81;7407628;19;20011;-87
2022/12/24 11:29:18;;;;;;;0.10;0.10;;;;;;;7.93;100.00;98981.56;7406599;19;20014;-86
2022/12/24 11:31:45;;;;;;;0.10;0.10;;;;;;;7.87;100.00;98979.94;7407348;19;20036;-85
2022/12/24 11:34:34;;;;;;;0.43;0.43;;;;;;;7.84;100.00;98983.66;7407004;19;20536;-86
2022/12/24 11:37:21;;;;;;;0.10;0.05;;;;;;;7.97;100.00;98984.16;7406592;19;20015;-86
2022/12/24 11:39:49;;;;;;;0.43;0.40;;;;;;;8.10;100.00;98976.31;7410062;19;20021;-86
2022/12/24 11:42:26;;;;;;;0.20;0.20;;;;;;;8.42;100.00;98969.75;7406864;19;20031;-86
2022/12/24 11:44:55;;;;;;;0.28;0.28;;;;;;;8.62;100.00;98969.78;7403761;19;20014;-86
2022/12/24 11:47:39;;;;;;;0.73;0.73;;;;;;;8.55;100.00;98963.88;7402057;19;20018;-86
2022/12/24 11:50:36;;;;;;;0.10;0.10;;;;;;;9.00;100.00;98974.31;7404105;19;20014;-86
2022/12/24 11:53:02;;;;;;;1.08;0.50;;;;;;;8.70;100.00;98967.38;7402471;19;20011;-86
2022/12/24 11:55:44;;;;;;;0.10;0.10;;;;;;;8.36;100.00;98960.56;7400468;19;20024;-86